sensor_id;sensor_type;location;lat;lon;timestamp;temperature;humidity
68378;DHT22;55322;48.146;11.516;2023-11-18T00:00:08;4.46;95.66
68378;DHT22;55322;48.146;11.516;2023-11-18T00:02:38;4.43;95.41
68378;DHT22;55322;48.146;11.516;2023-11-18T00:05:04;4.46;95.33
68378;DHT22;55322;48.146;11.516;2023-11-18T00:07:29;4.49;95.50
68378;DHT22;55322;48.146;11.516;2023-11-18T00:09:57;4.45;95.36
68378;DHT22;55322;48.146;11.516;2023-11-18T00:12:23;4.48;95.38
68378;DHT22;55322;48.146;11.516;2023-11-18T00:14:49;4.53;95.32
68378;DHT22;55322;48.146;11.516;2023-11-18T00:17:15;4.50;95.40
68378;DHT22;55322;48.146;11.516;2023-11-18T00:19:42;4.49;95.41
68378;DHT22;55322;48.146;11.516;2023-11-18T00:22:08;4.52;95.15
68378;DHT22;55322;48.146;11.516;2023-11-18T00:24:33;4.53;95.14
68378;DHT22;55322;48.146;11.516;2023-11-18T00:27:03;4.57;94.63
68378;DHT22;55322;48.146;11.516;2023-11-18T00:29:32;4.54;94.29
68378;DHT22;55322;48.146;11.516;2023-11-18T00:31:58;4.53;94.52
68378;DHT22;55322;48.146;11.516;2023-11-18T00:34:23;4.52;94.25
68378;DHT22;55322;48.146;11.516;2023-11-18T00:36:49;4.54;94.04
68378;DHT22;55322;48.146;11.516;2023-11-18T00:39:14;4.49;93.68
68378;DHT22;55322;48.146;11.516;2023-11-18T00:41:39;4.48;93.51
68378;DHT22;55322;48.146;11.516;2023-11-18T00:44:05;4.50;93.52
68378;DHT22;55322;48.146;11.516;2023-11-18T00:46:32;4.48;93.35
68378;DHT22;55322;48.146;11.516;2023-11-18T00:49:01;4.43;93.50
68378;DHT22;55322;48.146;11.516;2023-11-18T00:51:27;4.39;93.70
68378;DHT22;55322;48.146;11.516;2023-11-18T00:53:53;4.40;93.93
68378;DHT22;55322;48.146;11.516;2023-11-18T00:56:20;4.43;93.80
68378;DHT22;55322;48.146;11.516;2023-11-18T00:58:49;4.39;93.87
68378;DHT22;55322;48.146;11.516;2023-11-18T01:01:14;4.39;93.82
68378;DHT22;55322;48.146;11.516;2023-11-18T01:03:44;4.38;93.76
68378;DHT22;55322;48.146;11.516;2023-11-18T01:06:09;4.38;93.89
68378;DHT22;55322;48.146;11.516;2023-11-18T01:08:35;4.38;93.63
68378;DHT22;55322;48.146;11.516;2023-11-18T01:11:00;4.40;93.62
68378;DHT22;55322;48.146;11.516;2023-11-18T01:13:25;4.38;93.79
68378;DHT22;55322;48.146;11.516;2023-11-18T01:15:51;4.39;93.68
68378;DHT22;55322;48.146;11.516;2023-11-18T01:18:17;4.42;93.74
68378;DHT22;55322;48.146;11.516;2023-11-18T01:20:43;4.39;93.31
68378;DHT22;55322;48.146;11.516;2023-11-18T01:23:08;4.39;93.68
68378;DHT22;55322;48.146;11.516;2023-11-18T01:25:33;4.38;93.64
68378;DHT22;55322;48.146;11.516;2023-11-18T01:28:00;4.39;93.59
68378;DHT22;55322;48.146;11.516;2023-11-18T01:30:25;4.42;93.50
68378;DHT22;55322;48.146;11.516;2023-11-18T01:32:52;4.36;93.73
68378;DHT22;55322;48.146;11.516;2023-11-18T01:35:17;4.40;93.54
68378;DHT22;55322;48.146;11.516;2023-11-18T01:37:43;4.40;93.41
68378;DHT22;55322;48.146;11.516;2023-11-18T01:40:09;4.38;93.41
68378;DHT22;55322;48.146;11.516;2023-11-18T01:42:38;4.36;93.23
68378;DHT22;55322;48.146;11.516;2023-11-18T01:45:04;4.36;93.51
68378;DHT22;55322;48.146;11.516;2023-11-18T01:47:32;4.36;93.56
68378;DHT22;55322;48.146;11.516;2023-11-18T01:49:59;4.33;93.61
68378;DHT22;55322;48.146;11.516;2023-11-18T01:52:27;4.32;93.77
68378;DHT22;55322;48.146;11.516;2023-11-18T01:54:55;4.33;93.92
68378;DHT22;55322;48.146;11.516;2023-11-18T01:57:21;4.35;93.84
68378;DHT22;55322;48.146;11.516;2023-11-18T01:59:46;4.32;94.03
68378;DHT22;55322;48.146;11.516;2023-11-18T02:02:12;4.33;94.00
68378;DHT22;55322;48.146;11.516;2023-11-18T02:04:38;4.35;93.93
68378;DHT22;55322;48.146;11.516;2023-11-18T02:07:04;4.36;94.04
68378;DHT22;55322;48.146;11.516;2023-11-18T02:09:34;4.36;93.83
68378;DHT22;55322;48.146;11.516;2023-11-18T02:14:39;4.35;93.95
68378;DHT22;55322;48.146;11.516;2023-11-18T02:17:05;4.35;93.78
68378;DHT22;55322;48.146;11.516;2023-11-18T02:19:35;4.40;93.77
68378;DHT22;55322;48.146;11.516;2023-11-18T02:22:00;4.42;93.70
68378;DHT22;55322;48.146;11.516;2023-11-18T02:24:30;4.40;93.59
68378;DHT22;55322;48.146;11.516;2023-11-18T02:27:00;4.42;93.58
68378;DHT22;55322;48.146;11.516;2023-11-18T02:29:32;4.43;93.93
68378;DHT22;55322;48.146;11.516;2023-11-18T02:32:31;4.40;93.89
68378;DHT22;55322;48.146;11.516;2023-11-18T02:35:26;4.43;93.61
68378;DHT22;55322;48.146;11.516;2023-11-18T02:37:54;4.43;93.75
68378;DHT22;55322;48.146;11.516;2023-11-18T02:40:24;4.42;93.86
68378;DHT22;55322;48.146;11.516;2023-11-18T02:42:53;4.45;93.55
68378;DHT22;55322;48.146;11.516;2023-11-18T02:45:19;4.46;93.67
68378;DHT22;55322;48.146;11.516;2023-11-18T02:47:46;4.43;93.29
68378;DHT22;55322;48.146;11.516;2023-11-18T02:50:11;4.46;93.60
68378;DHT22;55322;48.146;11.516;2023-11-18T02:52:38;4.45;93.72
68378;DHT22;55322;48.146;11.516;2023-11-18T02:55:05;4.42;93.64
68378;DHT22;55322;48.146;11.516;2023-11-18T02:57:37;4.39;93.57
68378;DHT22;55322;48.146;11.516;2023-11-18T03:00:06;4.42;93.58
68378;DHT22;55322;48.146;11.516;2023-11-18T03:02:36;4.42;93.78
68378;DHT22;55322;48.146;11.516;2023-11-18T03:05:06;4.45;93.72
68378;DHT22;55322;48.146;11.516;2023-11-18T03:07:32;4.40;93.72
68378;DHT22;55322;48.146;11.516;2023-11-18T03:09:58;4.43;93.67
68378;DHT22;55322;48.146;11.516;2023-11-18T03:12:25;4.48;93.62
68378;DHT22;55322;48.146;11.516;2023-11-18T03:14:52;4.39;93.42
68378;DHT22;55322;48.146;11.516;2023-11-18T03:17:18;4.45;93.62
68378;DHT22;55322;48.146;11.516;2023-11-18T03:19:45;4.39;93.56
68378;DHT22;55322;48.146;11.516;2023-11-18T03:22:11;4.36;93.71
68378;DHT22;55322;48.146;11.516;2023-11-18T03:24:38;4.36;93.78
68378;DHT22;55322;48.146;11.516;2023-11-18T03:27:03;4.36;93.77
68378;DHT22;55322;48.146;11.516;2023-11-18T03:29:29;4.39;94.17
68378;DHT22;55322;48.146;11.516;2023-11-18T03:31:54;4.38;93.77
68378;DHT22;55322;48.146;11.516;2023-11-18T03:34:20;4.35;93.64
68378;DHT22;55322;48.146;11.516;2023-11-18T03:36:46;4.39;93.84
68378;DHT22;55322;48.146;11.516;2023-11-18T03:39:14;4.38;93.98
68378;DHT22;55322;48.146;11.516;2023-11-18T03:41:42;4.36;93.95
68378;DHT22;55322;48.146;11.516;2023-11-18T03:44:13;4.35;94.01
68378;DHT22;55322;48.146;11.516;2023-11-18T03:46:38;4.36;94.25
68378;DHT22;55322;48.146;11.516;2023-11-18T03:49:04;4.35;93.86
68378;DHT22;55322;48.146;11.516;2023-11-18T03:51:29;4.36;94.08
68378;DHT22;55322;48.146;11.516;2023-11-18T03:53:55;4.39;94.21
68378;DHT22;55322;48.146;11.516;2023-11-18T03:56:20;4.42;93.88
68378;DHT22;55322;48.146;11.516;2023-11-18T03:58:46;4.40;93.82
68378;DHT22;55322;48.146;11.516;2023-11-18T04:01:26;4.36;94.16
68378;DHT22;55322;48.146;11.516;2023-11-18T04:03:54;4.40;94.05
68378;DHT22;55322;48.146;11.516;2023-11-18T04:06:22;4.39;93.87
68378;DHT22;55322;48.146;11.516;2023-11-18T04:08:49;4.40;93.82
68378;DHT22;55322;48.146;11.516;2023-11-18T04:11:15;4.35;94.16
68378;DHT22;55322;48.146;11.516;2023-11-18T04:13:44;4.32;94.14
68378;DHT22;55322;48.146;11.516;2023-11-18T04:16:11;4.40;94.06
68378;DHT22;55322;48.146;11.516;2023-11-18T04:18:38;4.40;94.18
68378;DHT22;55322;48.146;11.516;2023-11-18T04:21:05;4.35;94.16
68378;DHT22;55322;48.146;11.516;2023-11-18T04:23:30;4.35;94.02
68378;DHT22;55322;48.146;11.516;2023-11-18T04:25:56;4.32;94.05
68378;DHT22;55322;48.146;11.516;2023-11-18T04:28:22;4.35;94.07
68378;DHT22;55322;48.146;11.516;2023-11-18T04:30:47;4.33;93.86
68378;DHT22;55322;48.146;11.516;2023-11-18T04:33:12;4.30;93.67
68378;DHT22;55322;48.146;11.516;2023-11-18T04:35:39;4.32;94.04
68378;DHT22;55322;48.146;11.516;2023-11-18T04:38:04;4.32;94.32
68378;DHT22;55322;48.146;11.516;2023-11-18T04:40:29;4.28;94.34
68378;DHT22;55322;48.146;11.516;2023-11-18T04:42:55;4.29;94.31
68378;DHT22;55322;48.146;11.516;2023-11-18T04:45:21;4.28;94.24
68378;DHT22;55322;48.146;11.516;2023-11-18T04:47:46;4.26;94.34
68378;DHT22;55322;48.146;11.516;2023-11-18T04:50:11;4.26;94.46
68378;DHT22;55322;48.146;11.516;2023-11-18T04:52:37;4.26;94.48
68378;DHT22;55322;48.146;11.516;2023-11-18T04:55:03;4.25;94.40
68378;DHT22;55322;48.146;11.516;2023-11-18T04:57:30;4.26;94.32
68378;DHT22;55322;48.146;11.516;2023-11-18T04:59:56;4.26;94.47
68378;DHT22;55322;48.146;11.516;2023-11-18T05:02:22;4.30;94.22
68378;DHT22;55322;48.146;11.516;2023-11-18T05:04:47;4.29;94.02
68378;DHT22;55322;48.146;11.516;2023-11-18T05:07:12;4.33;94.10
68378;DHT22;55322;48.146;11.516;2023-11-18T05:09:38;4.33;94.12
68378;DHT22;55322;48.146;11.516;2023-11-18T05:12:03;4.32;94.07
68378;DHT22;55322;48.146;11.516;2023-11-18T05:14:29;4.30;93.94
68378;DHT22;55322;48.146;11.516;2023-11-18T05:16:55;4.30;93.93
68378;DHT22;55322;48.146;11.516;2023-11-18T05:19:20;4.30;93.78
68378;DHT22;55322;48.146;11.516;2023-11-18T05:21:46;4.28;93.94
68378;DHT22;55322;48.146;11.516;2023-11-18T05:24:14;4.29;93.95
68378;DHT22;55322;48.146;11.516;2023-11-18T05:26:40;4.29;94.01
68378;DHT22;55322;48.146;11.516;2023-11-18T05:29:05;4.26;94.23
68378;DHT22;55322;48.146;11.516;2023-11-18T05:31:31;4.25;94.16
68378;DHT22;55322;48.146;11.516;2023-11-18T05:33:57;4.19;94.32
68378;DHT22;55322;48.146;11.516;2023-11-18T05:36:23;4.19;94.28
68378;DHT22;55322;48.146;11.516;2023-11-18T05:38:53;4.18;94.29
68378;DHT22;55322;48.146;11.516;2023-11-18T05:41:19;4.20;94.42
68378;DHT22;55322;48.146;11.516;2023-11-18T05:43:53;4.25;94.65
68378;DHT22;55322;48.146;11.516;2023-11-18T05:46:19;4.23;94.27
68378;DHT22;55322;48.146;11.516;2023-11-18T05:48:49;4.23;94.46
68378;DHT22;55322;48.146;11.516;2023-11-18T05:51:19;4.23;94.23
68378;DHT22;55322;48.146;11.516;2023-11-18T05:53:45;4.28;94.24
68378;DHT22;55322;48.146;11.516;2023-11-18T05:56:11;4.28;94.25
68378;DHT22;55322;48.146;11.516;2023-11-18T05:58:37;4.29;94.12
68378;DHT22;55322;48.146;11.516;2023-11-18T06:01:04;4.28;94.16
68378;DHT22;55322;48.146;11.516;2023-11-18T06:03:30;4.28;94.33
68378;DHT22;55322;48.146;11.516;2023-11-18T06:05:55;4.25;94.35
68378;DHT22;55322;48.146;11.516;2023-11-18T06:08:21;4.28;94.44
68378;DHT22;55322;48.146;11.516;2023-11-18T06:10:48;4.26;94.34
68378;DHT22;55322;48.146;11.516;2023-11-18T06:13:14;4.28;94.39
68378;DHT22;55322;48.146;11.516;2023-11-18T06:15:42;4.28;94.26
68378;DHT22;55322;48.146;11.516;2023-11-18T06:18:08;4.29;94.34
68378;DHT22;55322;48.146;11.516;2023-11-18T06:20:36;4.29;94.38
68378;DHT22;55322;48.146;11.516;2023-11-18T06:23:03;4.33;94.43
68378;DHT22;55322;48.146;11.516;2023-11-18T06:25:28;4.33;94.29
68378;DHT22;55322;48.146;11.516;2023-11-18T06:27:56;4.35;94.10
68378;DHT22;55322;48.146;11.516;2023-11-18T06:30:23;4.35;94.18
68378;DHT22;55322;48.146;11.516;2023-11-18T06:32:48;4.35;94.23
68378;DHT22;55322;48.146;11.516;2023-11-18T06:35:14;4.36;94.27
68378;DHT22;55322;48.146;11.516;2023-11-18T06:37:40;4.38;94.16
68378;DHT22;55322;48.146;11.516;2023-11-18T06:40:06;4.39;94.32
68378;DHT22;55322;48.146;11.516;2023-11-18T06:42:41;4.39;94.17
68378;DHT22;55322;48.146;11.516;2023-11-18T06:45:07;4.38;94.15
68378;DHT22;55322;48.146;11.516;2023-11-18T06:47:34;4.39;94.17
68378;DHT22;55322;48.146;11.516;2023-11-18T06:50:01;4.40;94.34
68378;DHT22;55322;48.146;11.516;2023-11-18T06:52:27;4.42;94.31
68378;DHT22;55322;48.146;11.516;2023-11-18T06:54:53;4.42;94.24
68378;DHT22;55322;48.146;11.516;2023-11-18T06:57:19;4.43;94.31
68378;DHT22;55322;48.146;11.516;2023-11-18T06:59:45;4.45;94.40
68378;DHT22;55322;48.146;11.516;2023-11-18T07:02:10;4.46;94.28
68378;DHT22;55322;48.146;11.516;2023-11-18T07:04:35;4.50;94.30
68378;DHT22;55322;48.146;11.516;2023-11-18T07:07:03;4.52;94.39
68378;DHT22;55322;48.146;11.516;2023-11-18T07:09:29;4.53;94.44
68378;DHT22;55322;48.146;11.516;2023-11-18T07:11:54;4.57;94.36
68378;DHT22;55322;48.146;11.516;2023-11-18T07:14:21;4.59;93.94
68378;DHT22;55322;48.146;11.516;2023-11-18T07:16:47;4.64;93.32
68378;DHT22;55322;48.146;11.516;2023-11-18T07:19:13;4.69;93.36
68378;DHT22;55322;48.146;11.516;2023-11-18T07:21:49;4.67;93.74
68378;DHT22;55322;48.146;11.516;2023-11-18T07:24:15;4.72;93.76
68378;DHT22;55322;48.146;11.516;2023-11-18T07:26:42;4.70;93.67
68378;DHT22;55322;48.146;11.516;2023-11-18T07:29:09;4.76;93.73
68378;DHT22;55322;48.146;11.516;2023-11-18T07:31:34;4.79;93.88
68378;DHT22;55322;48.146;11.516;2023-11-18T07:34:03;4.81;93.49
68378;DHT22;55322;48.146;11.516;2023-11-18T07:36:30;4.83;93.33
68378;DHT22;55322;48.146;11.516;2023-11-18T07:38:56;4.90;93.02
68378;DHT22;55322;48.146;11.516;2023-11-18T07:41:21;4.93;92.97
68378;DHT22;55322;48.146;11.516;2023-11-18T07:43:55;4.98;93.04
68378;DHT22;55322;48.146;11.516;2023-11-18T07:46:21;5.03;92.84
68378;DHT22;55322;48.146;11.516;2023-11-18T07:48:48;5.07;92.54
68378;DHT22;55322;48.146;11.516;2023-11-18T07:51:15;5.11;92.31
68378;DHT22;55322;48.146;11.516;2023-11-18T07:53:40;5.14;92.12
68378;DHT22;55322;48.146;11.516;2023-11-18T07:56:06;5.17;92.05
68378;DHT22;55322;48.146;11.516;2023-11-18T07:58:33;5.18;92.01
68378;DHT22;55322;48.146;11.516;2023-11-18T08:01:03;5.27;91.89
68378;DHT22;55322;48.146;11.516;2023-11-18T08:03:29;5.35;91.52
68378;DHT22;55322;48.146;11.516;2023-11-18T08:05:56;5.45;90.83
68378;DHT22;55322;48.146;11.516;2023-11-18T08:08:23;5.52;90.93
68378;DHT22;55322;48.146;11.516;2023-11-18T08:10:48;5.58;90.11
68378;DHT22;55322;48.146;11.516;2023-11-18T08:13:13;5.63;90.50
68378;DHT22;55322;48.146;11.516;2023-11-18T08:15:40;5.69;90.95
68378;DHT22;55322;48.146;11.516;2023-11-18T08:18:06;5.72;90.16
68378;DHT22;55322;48.146;11.516;2023-11-18T08:20:32;5.72;89.77
68378;DHT22;55322;48.146;11.516;2023-11-18T08:22:58;5.72;89.83
68378;DHT22;55322;48.146;11.516;2023-11-18T08:25:24;5.72;90.17
68378;DHT22;55322;48.146;11.516;2023-11-18T08:27:50;5.79;89.83
68378;DHT22;55322;48.146;11.516;2023-11-18T08:30:16;5.80;89.47
68378;DHT22;55322;48.146;11.516;2023-11-18T08:32:45;5.85;89.54
68378;DHT22;55322;48.146;11.516;2023-11-18T08:35:11;5.85;89.02
68378;DHT22;55322;48.146;11.516;2023-11-18T08:37:43;5.85;89.93
68378;DHT22;55322;48.146;11.516;2023-11-18T08:40:09;5.85;89.43
68378;DHT22;55322;48.146;11.516;2023-11-18T08:42:45;5.82;89.45
68378;DHT22;55322;48.146;11.516;2023-11-18T08:45:18;5.86;89.35
68378;DHT22;55322;48.146;11.516;2023-11-18T08:47:48;5.89;89.02
68378;DHT22;55322;48.146;11.516;2023-11-18T08:50:17;5.98;88.40
68378;DHT22;55322;48.146;11.516;2023-11-18T08:52:43;6.06;88.31
68378;DHT22;55322;48.146;11.516;2023-11-18T08:55:13;6.14;87.46
68378;DHT22;55322;48.146;11.516;2023-11-18T08:57:42;6.29;87.13
68378;DHT22;55322;48.146;11.516;2023-11-18T09:00:23;6.41;86.74
68378;DHT22;55322;48.146;11.516;2023-11-18T09:03:07;6.53;86.41
68378;DHT22;55322;48.146;11.516;2023-11-18T09:05:33;6.58;85.90
68378;DHT22;55322;48.146;11.516;2023-11-18T09:08:01;6.63;86.75
68378;DHT22;55322;48.146;11.516;2023-11-18T09:10:27;6.75;84.68
68378;DHT22;55322;48.146;11.516;2023-11-18T09:12:55;6.77;84.27
68378;DHT22;55322;48.146;11.516;2023-11-18T09:15:21;6.74;83.81
68378;DHT22;55322;48.146;11.516;2023-11-18T09:17:50;6.78;84.17
68378;DHT22;55322;48.146;11.516;2023-11-18T09:20:18;6.75;84.28
68378;DHT22;55322;48.146;11.516;2023-11-18T09:22:46;6.75;83.80
68378;DHT22;55322;48.146;11.516;2023-11-18T09:25:11;6.85;84.36
68378;DHT22;55322;48.146;11.516;2023-11-18T09:27:36;7.01;84.47
68378;DHT22;55322;48.146;11.516;2023-11-18T09:30:04;7.12;82.85
68378;DHT22;55322;48.146;11.516;2023-11-18T09:32:38;7.32;82.75
68378;DHT22;55322;48.146;11.516;2023-11-18T09:35:04;7.42;82.88
68378;DHT22;55322;48.146;11.516;2023-11-18T09:37:34;7.40;81.61
68378;DHT22;55322;48.146;11.516;2023-11-18T09:40:00;7.56;81.74
68378;DHT22;55322;48.146;11.516;2023-11-18T09:42:36;7.58;80.73
68378;DHT22;55322;48.146;11.516;2023-11-18T09:45:03;7.70;80.17
68378;DHT22;55322;48.146;11.516;2023-11-18T09:47:33;8.35;78.33
68378;DHT22;55322;48.146;11.516;2023-11-18T09:50:02;9.08;76.18
68378;DHT22;55322;48.146;11.516;2023-11-18T09:52:30;9.33;74.33
68378;DHT22;55322;48.146;11.516;2023-11-18T09:55:09;9.50;73.10
68378;DHT22;55322;48.146;11.516;2023-11-18T09:57:43;9.55;74.19
68378;DHT22;55322;48.146;11.516;2023-11-18T10:00:12;9.87;72.52
68378;DHT22;55322;48.146;11.516;2023-11-18T10:02:54;10.19;71.03
68378;DHT22;55322;48.146;11.516;2023-11-18T10:05:21;10.39;69.78
68378;DHT22;55322;48.146;11.516;2023-11-18T10:07:48;10.46;71.55
68378;DHT22;55322;48.146;11.516;2023-11-18T10:10:14;10.62;71.78
68378;DHT22;55322;48.146;11.516;2023-11-18T10:12:43;10.63;68.21
68378;DHT22;55322;48.146;11.516;2023-11-18T10:15:17;10.62;67.77
68378;DHT22;55322;48.146;11.516;2023-11-18T10:17:45;10.79;69.11
68378;DHT22;55322;48.146;11.516;2023-11-18T10:20:22;10.75;67.25
68378;DHT22;55322;48.146;11.516;2023-11-18T10:23:05;10.96;64.84
68378;DHT22;55322;48.146;11.516;2023-11-18T10:25:31;10.66;67.68
68378;DHT22;55322;48.146;11.516;2023-11-18T10:28:00;10.82;67.06
68378;DHT22;55322;48.146;11.516;2023-11-18T10:30:27;10.79;66.62
68378;DHT22;55322;48.146;11.516;2023-11-18T10:32:59;10.17;67.47
68378;DHT22;55322;48.146;11.516;2023-11-18T10:35:37;10.49;66.67
68378;DHT22;55322;48.146;11.516;2023-11-18T10:38:02;10.52;68.25
68378;DHT22;55322;48.146;11.516;2023-11-18T10:40:33;10.92;67.05
68378;DHT22;55322;48.146;11.516;2023-11-18T10:43:05;10.86;66.81
68378;DHT22;55322;48.146;11.516;2023-11-18T10:45:35;10.82;65.78
68378;DHT22;55322;48.146;11.516;2023-11-18T10:48:06;10.83;64.87
68378;DHT22;55322;48.146;11.516;2023-11-18T10:50:32;11.02;65.67
68378;DHT22;55322;48.146;11.516;2023-11-18T10:53:01;10.55;66.50
68378;DHT22;55322;48.146;11.516;2023-11-18T10:55:38;10.19;67.58
68378;DHT22;55322;48.146;11.516;2023-11-18T10:58:03;10.05;68.33
68378;DHT22;55322;48.146;11.516;2023-11-18T11:00:45;9.51;69.62
68378;DHT22;55322;48.146;11.516;2023-11-18T11:03:12;9.27;68.62
68378;DHT22;55322;48.146;11.516;2023-11-18T11:05:39;9.02;70.61
68378;DHT22;55322;48.146;11.516;2023-11-18T11:08:08;8.72;71.24
68378;DHT22;55322;48.146;11.516;2023-11-18T11:10:33;8.58;70.86
68378;DHT22;55322;48.146;11.516;2023-11-18T11:13:01;8.33;72.39
68378;DHT22;55322;48.146;11.516;2023-11-18T11:15:33;8.10;73.61
68378;DHT22;55322;48.146;11.516;2023-11-18T11:18:05;7.93;74.55
68378;DHT22;55322;48.146;11.516;2023-11-18T11:20:42;7.80;75.08
68378;DHT22;55322;48.146;11.516;2023-11-18T11:23:35;7.67;74.85
68378;DHT22;55322;48.146;11.516;2023-11-18T11:28:42;7.70;74.67
68378;DHT22;55322;48.146;11.516;2023-11-18T13:27:42;13.77;49.16
68378;DHT22;55322;48.146;11.516;2023-11-18T13:30:07;12.72;51.92
68378;DHT22;55322;48.146;11.516;2023-11-18T13:32:40;11.85;53.90
68378;DHT22;55322;48.146;11.516;2023-11-18T13:35:06;11.20;57.36
68378;DHT22;55322;48.146;11.516;2023-11-18T13:37:32;10.46;60.95
68378;DHT22;55322;48.146;11.516;2023-11-18T13:39:58;10.02;61.07
68378;DHT22;55322;48.146;11.516;2023-11-18T13:42:26;9.61;64.42
68378;DHT22;55322;48.146;11.516;2023-11-18T13:44:53;9.44;63.85
68378;DHT22;55322;48.146;11.516;2023-11-18T13:47:22;9.08;65.24
68378;DHT22;55322;48.146;11.516;2023-11-18T13:49:53;8.86;66.52
68378;DHT22;55322;48.146;11.516;2023-11-18T13:52:19;8.64;66.94
68378;DHT22;55322;48.146;11.516;2023-11-18T13:54:46;8.34;69.29
68378;DHT22;55322;48.146;11.516;2023-11-18T13:57:12;8.25;69.85
68378;DHT22;55322;48.146;11.516;2023-11-18T13:59:37;8.18;68.62
68378;DHT22;55322;48.146;11.516;2023-11-18T14:02:04;8.08;70.06
68378;DHT22;55322;48.146;11.516;2023-11-18T14:04:30;7.89;71.71
68378;DHT22;55322;48.146;11.516;2023-11-18T14:06:58;7.86;72.97
68378;DHT22;55322;48.146;11.516;2023-11-18T14:09:24;7.91;71.64
68378;DHT22;55322;48.146;11.516;2023-11-18T14:11:55;7.97;69.67
68378;DHT22;55322;48.146;11.516;2023-11-18T14:14:21;8.03;70.58
68378;DHT22;55322;48.146;11.516;2023-11-18T14:16:48;8.03;70.90
68378;DHT22;55322;48.146;11.516;2023-11-18T14:19:14;7.94;70.60
68378;DHT22;55322;48.146;11.516;2023-11-18T14:21:40;7.89;71.76
68378;DHT22;55322;48.146;11.516;2023-11-18T14:24:07;7.69;72.56
68378;DHT22;55322;48.146;11.516;2023-11-18T14:26:33;7.49;70.68
68378;DHT22;55322;48.146;11.516;2023-11-18T14:28:58;7.30;73.38
68378;DHT22;55322;48.146;11.516;2023-11-18T14:31:27;7.22;74.56
68378;DHT22;55322;48.146;11.516;2023-11-18T14:33:53;7.15;74.98
68378;DHT22;55322;48.146;11.516;2023-11-18T14:36:21;7.05;75.99
68378;DHT22;55322;48.146;11.516;2023-11-18T14:38:47;7.08;76.54
68378;DHT22;55322;48.146;11.516;2023-11-18T14:41:12;6.97;75.44
68378;DHT22;55322;48.146;11.516;2023-11-18T14:43:38;6.87;75.51
68378;DHT22;55322;48.146;11.516;2023-11-18T14:46:03;6.81;75.24
68378;DHT22;55322;48.146;11.516;2023-11-18T14:48:29;6.63;76.26
68378;DHT22;55322;48.146;11.516;2023-11-18T14:50:54;6.45;77.50
68378;DHT22;55322;48.146;11.516;2023-11-18T14:53:22;6.34;77.87
68378;DHT22;55322;48.146;11.516;2023-11-18T14:55:47;6.22;76.88
68378;DHT22;55322;48.146;11.516;2023-11-18T14:58:13;6.14;77.11
68378;DHT22;55322;48.146;11.516;2023-11-18T15:00:38;6.10;78.66
68378;DHT22;55322;48.146;11.516;2023-11-18T15:03:05;5.99;79.48
68378;DHT22;55322;48.146;11.516;2023-11-18T15:05:31;5.89;80.39
68378;DHT22;55322;48.146;11.516;2023-11-18T15:07:56;5.79;79.47
68378;DHT22;55322;48.146;11.516;2023-11-18T15:10:25;5.83;80.89
68378;DHT22;55322;48.146;11.516;2023-11-18T15:12:52;5.83;82.02
68378;DHT22;55322;48.146;11.516;2023-11-18T15:15:22;5.82;81.69
68378;DHT22;55322;48.146;11.516;2023-11-18T15:17:48;5.80;81.67
68378;DHT22;55322;48.146;11.516;2023-11-18T15:20:17;5.78;81.92
68378;DHT22;55322;48.146;11.516;2023-11-18T15:22:48;5.76;81.93
68378;DHT22;55322;48.146;11.516;2023-11-18T15:25:14;5.78;81.93
68378;DHT22;55322;48.146;11.516;2023-11-18T15:27:45;5.75;82.11
68378;DHT22;55322;48.146;11.516;2023-11-18T15:30:15;5.76;82.75
68378;DHT22;55322;48.146;11.516;2023-11-18T15:32:42;5.75;83.12
68378;DHT22;55322;48.146;11.516;2023-11-18T15:35:08;5.82;83.45
68378;DHT22;55322;48.146;11.516;2023-11-18T15:37:35;5.82;82.91
68378;DHT22;55322;48.146;11.516;2023-11-18T15:40:02;5.83;83.94
68378;DHT22;55322;48.146;11.516;2023-11-18T15:42:38;5.89;83.43
68378;DHT22;55322;48.146;11.516;2023-11-18T15:45:07;5.85;83.32
68378;DHT22;55322;48.146;11.516;2023-11-18T15:47:34;5.82;84.00
68378;DHT22;55322;48.146;11.516;2023-11-18T15:50:01;5.82;84.48
68378;DHT22;55322;48.146;11.516;2023-11-18T15:52:29;5.83;84.09
68378;DHT22;55322;48.146;11.516;2023-11-18T15:54:54;5.86;84.33
68378;DHT22;55322;48.146;11.516;2023-11-18T15:57:20;5.93;85.06
68378;DHT22;55322;48.146;11.516;2023-11-18T15:59:47;5.95;84.14
68378;DHT22;55322;48.146;11.516;2023-11-18T16:02:12;5.95;84.59
68378;DHT22;55322;48.146;11.516;2023-11-18T16:04:37;6.00;83.61
68378;DHT22;55322;48.146;11.516;2023-11-18T16:07:03;6.05;81.17
68378;DHT22;55322;48.146;11.516;2023-11-18T16:09:28;6.10;82.09
68378;DHT22;55322;48.146;11.516;2023-11-18T16:11:54;6.00;82.43
68378;DHT22;55322;48.146;11.516;2023-11-18T16:14:19;5.89;83.51
68378;DHT22;55322;48.146;11.516;2023-11-18T16:16:46;5.83;83.70
68378;DHT22;55322;48.146;11.516;2023-11-18T16:19:11;5.78;83.51
68378;DHT22;55322;48.146;11.516;2023-11-18T16:21:37;5.76;83.86
68378;DHT22;55322;48.146;11.516;2023-11-18T16:24:03;5.80;83.96
68378;DHT22;55322;48.146;11.516;2023-11-18T16:26:29;5.83;81.27
68378;DHT22;55322;48.146;11.516;2023-11-18T16:28:54;5.90;80.71
68378;DHT22;55322;48.146;11.516;2023-11-18T16:31:20;6.00;79.48
68378;DHT22;55322;48.146;11.516;2023-11-18T16:33:47;6.07;80.55
68378;DHT22;55322;48.146;11.516;2023-11-18T16:36:20;6.13;79.54
68378;DHT22;55322;48.146;11.516;2023-11-18T16:38:47;6.19;79.75
68378;DHT22;55322;48.146;11.516;2023-11-18T16:41:12;6.16;80.39
68378;DHT22;55322;48.146;11.516;2023-11-18T16:43:37;6.19;78.64
68378;DHT22;55322;48.146;11.516;2023-11-18T16:46:03;6.20;79.85
68378;DHT22;55322;48.146;11.516;2023-11-18T16:48:30;6.22;80.59
68378;DHT22;55322;48.146;11.516;2023-11-18T16:50:56;6.26;80.63
68378;DHT22;55322;48.146;11.516;2023-11-18T16:53:21;6.26;80.30
68378;DHT22;55322;48.146;11.516;2023-11-18T16:55:47;6.29;79.28
68378;DHT22;55322;48.146;11.516;2023-11-18T16:58:12;6.30;79.67
68378;DHT22;55322;48.146;11.516;2023-11-18T17:00:38;6.30;80.34
68378;DHT22;55322;48.146;11.516;2023-11-18T17:03:03;6.27;82.83
68378;DHT22;55322;48.146;11.516;2023-11-18T17:05:29;6.24;81.96
68378;DHT22;55322;48.146;11.516;2023-11-18T17:07:55;6.24;81.43
68378;DHT22;55322;48.146;11.516;2023-11-18T19:09:13;6.10;83.92
68378;DHT22;55322;48.146;11.516;2023-11-18T19:11:38;6.02;82.65
68378;DHT22;55322;48.146;11.516;2023-11-18T19:14:04;5.99;81.97
68378;DHT22;55322;48.146;11.516;2023-11-18T19:16:29;5.92;82.88
68378;DHT22;55322;48.146;11.516;2023-11-18T19:18:55;5.86;82.02
68378;DHT22;55322;48.146;11.516;2023-11-18T19:21:24;5.76;83.86
68378;DHT22;55322;48.146;11.516;2023-11-18T19:23:53;5.72;84.62
68378;DHT22;55322;48.146;11.516;2023-11-18T19:26:19;5.65;85.01
68378;DHT22;55322;48.146;11.516;2023-11-18T19:28:46;5.52;85.07
68378;DHT22;55322;48.146;11.516;2023-11-18T19:31:12;5.49;85.87